Time;durP1;ratioP1;P1;durP2;ratioP2;P2;SDS_P1;SDS_P2;PMS_P1;PMS_P2;Temp;Humidity;BMP_temperature;BMP_pressure;BME280_temperature;BME280_humidity;BME280_pressure;Samples;Min_cycle;Max_cycle;Signal;HPM_P1;HPM_P2
2023/09/09 00:02:22;;;;;;;2.65;1.80;;;20.30;99.90;;;;;;5000558;28;20687;-68
2023/09/09 00:04:54;;;;;;;2.90;2.20;;;20.20;99.90;;;;;;4999484;28;20230;-68
2023/09/09 00:07:23;;;;;;;2.40;2.20;;;20.30;99.90;;;;;;4996594;28;20226;-68
2023/09/09 00:09:51;;;;;;;2.30;2.05;;;20.40;99.90;;;;;;5003402;28;20263;-68
2023/09/09 00:12:19;;;;;;;1.90;1.80;;;20.20;99.90;;;;;;5007451;28;20219;-66
2023/09/09 00:14:47;;;;;;;2.35;2.00;;;20.10;99.90;;;;;;4987669;28;20234;-68
2023/09/09 00:17:15;;;;;;;2.05;1.85;;;20.20;99.90;;;;;;5006616;28;20688;-68
2023/09/09 00:19:42;;;;;;;6.97;2.15;;;20.20;99.90;;;;;;5000130;28;20206;-68
2023/09/09 00:22:10;;;;;;;2.50;2.25;;;20.20;99.90;;;;;;4992100;28;20264;-69
2023/09/09 00:24:40;;;;;;;2.30;2.10;;;20.20;99.90;;;;;;5009501;28;20295;-67
2023/09/09 00:27:07;;;;;;;3.92;2.00;;;20.20;99.90;;;;;;4997205;28;20719;-68
2023/09/09 00:29:35;;;;;;;4.30;2.00;;;20.20;99.90;;;;;;5001628;28;20271;-68
2023/09/09 00:32:03;;;;;;;2.65;2.45;;;20.20;99.90;;;;;;5005663;28;20205;-69
2023/09/09 00:34:33;;;;;;;2.33;1.80;;;20.20;99.90;;;;;;5005892;28;20225;-68
2023/09/09 00:37:03;;;;;;;2.38;2.17;;;20.10;99.90;;;;;;5001784;28;20213;-71
2023/09/09 00:39:31;;;;;;;2.50;2.30;;;20.10;99.90;;;;;;4998867;28;20680;-67
2023/09/09 00:42:00;;;;;;;2.58;1.60;;;20.20;99.90;;;;;;4999833;28;20661;-68
2023/09/09 00:44:28;;;;;;;2.70;2.13;;;20.10;99.90;;;;;;4991880;28;20234;-68
2023/09/09 00:46:56;;;;;;;2.08;1.88;;;20.10;99.90;;;;;;5004829;28;20220;-69
2023/09/09 00:49:25;;;;;;;5.03;2.50;;;20.10;99.90;;;;;;5002554;28;20223;-66
2023/09/09 00:51:53;;;;;;;2.97;2.22;;;19.90;99.90;;;;;;4992544;28;20201;-68
2023/09/09 00:54:21;;;;;;;2.13;1.92;;;19.80;99.90;;;;;;5005541;28;20232;-68
2023/09/09 00:56:51;;;;;;;2.25;2.05;;;19.80;99.90;;;;;;4994709;28;20201;-68
2023/09/09 00:59:20;;;;;;;2.45;2.25;;;19.80;99.90;;;;;;4995667;28;20212;-68
2023/09/09 01:01:48;;;;;;;4.65;2.40;;;19.90;99.90;;;;;;4994377;28;20209;-68
2023/09/09 01:04:16;;;;;;;2.22;1.75;;;19.90;99.90;;;;;;4996300;28;20220;-68
2023/09/09 01:06:45;;;;;;;1.98;1.88;;;19.90;99.90;;;;;;4990416;28;20572;-68
2023/09/09 01:09:13;;;;;;;2.20;2.00;;;19.80;99.90;;;;;;5004437;28;20647;-70
2023/09/09 01:11:41;;;;;;;3.80;2.95;;;19.80;99.90;;;;;;5001327;28;20209;-70
2023/09/09 01:14:09;;;;;;;2.38;2.17;;;19.90;99.90;;;;;;4999229;28;20537;-68
2023/09/09 01:16:38;;;;;;;4.72;2.30;;;19.80;99.90;;;;;;5008466;28;20304;-69
2023/09/09 01:19:08;;;;;;;2.33;1.92;;;19.80;99.90;;;;;;5004964;28;20206;-68
2023/09/09 01:21:39;;;;;;;2.35;2.15;;;19.70;99.90;;;;;;4998377;28;20259;-68
2023/09/09 01:24:08;;;;;;;2.40;2.20;;;19.90;99.90;;;;;;5005095;28;20676;-68
2023/09/09 01:26:37;;;;;;;2.88;2.30;;;19.90;99.90;;;;;;4996635;28;20729;-68
2023/09/09 01:29:05;;;;;;;3.83;2.22;;;19.90;99.90;;;;;;4995658;28;20249;-68
2023/09/09 01:31:33;;;;;;;3.45;2.97;;;19.90;99.90;;;;;;4999517;28;20208;-67
2023/09/09 01:34:01;;;;;;;3.38;2.47;;;19.90;99.90;;;;;;5002489;28;20224;-67
2023/09/09 01:36:28;;;;;;;2.15;1.95;;;19.80;99.90;;;;;;5003414;28;20297;-67
2023/09/09 01:38:57;;;;;;;3.25;2.35;;;19.80;99.90;;;;;;4991238;28;20206;-69
2023/09/09 01:41:26;;;;;;;1.83;1.40;;;19.90;99.90;;;;;;5006456;28;20204;-67
2023/09/09 01:43:54;;;;;;;2.70;2.50;;;19.90;99.90;;;;;;4994281;28;20197;-68
2023/09/09 01:46:22;;;;;;;2.13;1.73;;;19.90;99.90;;;;;;5001767;28;20229;-67
2023/09/09 01:48:50;;;;;;;2.78;2.15;;;19.90;99.90;;;;;;5007421;28;20703;-67
2023/09/09 01:51:18;;;;;;;1.70;1.60;;;20.00;99.90;;;;;;4999085;28;20214;-68
2023/09/09 01:53:46;;;;;;;1.80;1.70;;;20.00;99.90;;;;;;4993288;28;20261;-68
2023/09/09 01:56:14;;;;;;;2.83;2.13;;;20.00;99.90;;;;;;4996330;28;20631;-68
2023/09/09 01:58:43;;;;;;;3.22;2.40;;;20.20;99.90;;;;;;5000429;28;20214;-68
2023/09/09 02:01:11;;;;;;;1.73;1.63;;;20.10;99.90;;;;;;4994687;28;20214;-68
2023/09/09 02:03:39;;;;;;;3.50;2.40;;;20.00;99.90;;;;;;5010436;28;20224;-68
2023/09/09 02:06:08;;;;;;;3.90;2.15;;;19.90;99.90;;;;;;5007770;28;20659;-69
2023/09/09 02:08:36;;;;;;;2.53;2.33;;;20.00;99.90;;;;;;4997530;28;20272;-68
2023/09/09 02:11:03;;;;;;;3.25;2.67;;;20.10;99.90;;;;;;5001985;28;20567;-67
2023/09/09 02:13:31;;;;;;;1.98;1.77;;;20.10;99.90;;;;;;5002232;28;20573;-67
2023/09/09 02:16:08;;;;;;;1.90;1.80;;;20.10;99.90;;;;;;5007635;28;20689;-67
2023/09/09 02:18:37;;;;;;;2.53;2.28;;;20.10;99.90;;;;;;5005529;28;20212;-66
2023/09/09 02:21:08;;;;;;;2.58;2.00;;;20.10;99.90;;;;;;5008938;28;20245;-67
2023/09/09 02:23:40;;;;;;;2.15;1.95;;;20.10;99.90;;;;;;5002092;28;20268;-68
2023/09/09 02:26:09;;;;;;;2.00;1.80;;;20.00;99.90;;;;;;4997351;28;20252;-67
2023/09/09 02:28:37;;;;;;;2.55;2.15;;;19.90;99.90;;;;;;4998802;28;20296;-68
2023/09/09 02:31:07;;;;;;;2.60;2.40;;;19.90;99.90;;;;;;5001130;28;20213;-68
2023/09/09 02:33:35;;;;;;;2.35;2.15;;;19.80;99.90;;;;;;5001767;28;20596;-67
2023/09/09 02:36:04;;;;;;;2.65;2.42;;;19.80;99.90;;;;;;4994119;28;20233;-67
2023/09/09 02:38:33;;;;;;;2.80;2.50;;;19.80;99.90;;;;;;5010302;28;20206;-68
2023/09/09 02:41:01;;;;;;;2.55;2.25;;;19.80;99.90;;;;;;5005645;28;20205;-67
2023/09/09 02:43:30;;;;;;;2.50;2.08;;;19.70;99.90;;;;;;5001926;28;20669;-68
2023/09/09 02:45:58;;;;;;;4.68;2.58;;;19.80;99.90;;;;;;5005439;28;20222;-67
2023/09/09 02:48:27;;;;;;;13.43;2.80;;;19.80;99.90;;;;;;5013236;28;20209;-68
2023/09/09 02:50:55;;;;;;;2.00;1.80;;;19.80;99.90;;;;;;5001948;28;20214;-67
2023/09/09 02:53:23;;;;;;;2.08;1.83;;;19.70;99.90;;;;;;4993621;28;20217;-68
2023/09/09 02:55:51;;;;;;;3.30;2.70;;;19.70;99.90;;;;;;4991920;28;20296;-67
2023/09/09 02:58:19;;;;;;;2.83;2.55;;;19.60;99.90;;;;;;5001837;28;20206;-69
2023/09/09 03:00:47;;;;;;;2.35;2.15;;;19.50;99.90;;;;;;4993231;28;20205;-67
2023/09/09 03:03:16;;;;;;;2.42;2.17;;;19.50;99.90;;;;;;4988895;28;20297;-67
2023/09/09 03:05:46;;;;;;;4.10;2.40;;;19.50;99.90;;;;;;5002310;28;20236;-67
2023/09/09 03:08:13;;;;;;;3.65;2.33;;;19.60;99.90;;;;;;5008112;28;20272;-67
2023/09/09 03:10:41;;;;;;;2.35;1.90;;;19.60;99.90;;;;;;5009484;28;20299;-68
2023/09/09 03:13:09;;;;;;;2.40;2.20;;;19.60;99.90;;;;;;5012645;28;20348;-69
2023/09/09 03:15:37;;;;;;;3.95;2.20;;;19.60;99.90;;;;;;5002730;28;20237;-68
2023/09/09 03:18:05;;;;;;;2.53;2.33;;;19.60;99.90;;;;;;4998420;28;20217;-68
2023/09/09 03:20:33;;;;;;;2.55;2.03;;;19.60;99.90;;;;;;4993176;28;20257;-68
2023/09/09 03:23:02;;;;;;;10.10;3.17;;;19.70;99.90;;;;;;5004061;28;20660;-68
2023/09/09 03:25:30;;;;;;;2.33;2.13;;;19.50;99.90;;;;;;5002236;28;20718;-68
2023/09/09 03:27:58;;;;;;;2.40;2.20;;;19.50;99.90;;;;;;5012384;28;20218;-69
2023/09/09 03:30:26;;;;;;;2.67;2.38;;;19.50;99.90;;;;;;4998065;28;20221;-69
2023/09/09 03:32:59;;;;;;;2.47;1.92;;;19.40;99.90;;;;;;5008837;28;20202;-68
2023/09/09 03:35:27;;;;;;;2.53;2.10;;;19.40;99.90;;;;;;4997525;28;20218;-67
2023/09/09 03:37:55;;;;;;;2.33;2.13;;;19.40;99.90;;;;;;5001944;28;20610;-68
2023/09/09 03:40:25;;;;;;;2.40;2.13;;;19.40;99.90;;;;;;5012399;28;20308;-68
2023/09/09 03:42:52;;;;;;;2.70;2.50;;;19.50;99.90;;;;;;5003805;28;20264;-68
2023/09/09 03:45:21;;;;;;;2.25;2.05;;;19.40;99.90;;;;;;5005980;28;20248;-68
2023/09/09 03:47:49;;;;;;;2.63;2.10;;;19.40;99.90;;;;;;5012112;28;20292;-68
2023/09/09 03:50:17;;;;;;;2.40;2.20;;;19.50;99.90;;;;;;4999256;28;20229;-68
2023/09/09 03:52:45;;;;;;;3.20;2.00;;;19.60;99.90;;;;;;4990248;28;20221;-68
2023/09/09 03:55:14;;;;;;;2.85;2.58;;;19.60;99.90;;;;;;4998213;28;20283;-70
2023/09/09 03:57:43;;;;;;;4.05;3.13;;;19.60;99.90;;;;;;4989273;28;20264;-69
2023/09/09 04:00:12;;;;;;;1.70;1.60;;;19.60;99.90;;;;;;5008083;28;20213;-68
2023/09/09 04:02:41;;;;;;;2.58;2.33;;;19.50;99.90;;;;;;5008273;28;20213;-68
2023/09/09 04:05:09;;;;;;;3.17;2.88;;;19.40;99.90;;;;;;4988467;28;20225;-68
2023/09/09 04:07:37;;;;;;;2.15;1.95;;;19.50;99.90;;;;;;5011841;28;20217;-68
2023/09/09 04:10:06;;;;;;;4.63;2.42;;;19.50;99.90;;;;;;4998209;28;20231;-68
2023/09/09 04:12:34;;;;;;;2.28;1.90;;;19.60;99.90;;;;;;4996409;28;20218;-70
2023/09/09 04:15:04;;;;;;;2.25;2.05;;;19.40;99.90;;;;;;4998487;28;20231;-67
2023/09/09 04:17:32;;;;;;;2.40;2.20;;;19.40;99.90;;;;;;5011711;28;20690;-67
2023/09/09 04:20:01;;;;;;;2.25;2.05;;;19.30;99.90;;;;;;5000948;28;20221;-66
2023/09/09 04:22:29;;;;;;;2.67;2.47;;;19.30;99.90;;;;;;4997317;28;20228;-67
2023/09/09 04:24:56;;;;;;;5.50;3.42;;;19.20;99.90;;;;;;4993358;28;20238;-68
2023/09/09 04:27:24;;;;;;;;;;;19.20;99.90;;;;;;4993079;28;20576;-67
2023/09/09 04:29:52;;;;;;;;;;;19.20;99.90;;;;;;5002116;28;19922;-67
2023/09/09 04:32:21;;;;;;;2.53;2.33;;;19.10;99.90;;;;;;5000233;28;20208;-68
2023/09/09 04:34:49;;;;;;;4.07;2.53;;;19.10;99.90;;;;;;5003143;28;20217;-68
2023/09/09 04:37:18;;;;;;;2.20;2.10;;;19.10;99.90;;;;;;4993983;28;20213;-68
2023/09/09 04:39:46;;;;;;;3.17;2.72;;;19.00;99.90;;;;;;5003026;28;20664;-68
2023/09/09 04:42:16;;;;;;;2.22;2.03;;;19.00;99.90;;;;;;5003049;28;20692;-69
2023/09/09 04:44:44;;;;;;;2.00;1.85;;;19.00;99.90;;;;;;4999574;28;20221;-68
2023/09/09 04:47:12;;;;;;;2.92;2.63;;;19.00;99.90;;;;;;4992051;28;20268;-68
2023/09/09 04:49:42;;;;;;;2.72;2.40;;;19.00;99.90;;;;;;4983896;28;20682;-67
2023/09/09 04:52:10;;;;;;;2.55;1.92;;;19.10;99.90;;;;;;4982069;28;20577;-67
2023/09/09 04:54:38;;;;;;;2.78;2.50;;;19.10;99.90;;;;;;5006660;28;20220;-68
2023/09/09 04:57:06;;;;;;;2.63;1.90;;;19.10;99.90;;;;;;4992186;28;20590;-67
2023/09/09 04:59:34;;;;;;;2.88;2.40;;;19.00;99.90;;;;;;4997884;28;20213;-68
2023/09/09 05:02:02;;;;;;;3.28;2.97;;;18.90;99.90;;;;;;4986591;28;20209;-68
2023/09/09 05:04:30;;;;;;;2.70;2.50;;;18.90;99.90;;;;;;4990885;28;20606;-68
2023/09/09 05:07:00;;;;;;;3.95;2.58;;;18.80;99.90;;;;;;4999338;28;20201;-69
2023/09/09 05:09:28;;;;;;;4.55;2.85;;;18.80;99.90;;;;;;5004767;28;20616;-68
2023/09/09 05:11:56;;;;;;;2.50;2.30;;;18.90;99.90;;;;;;5002250;28;20246;-68
2023/09/09 05:14:24;;;;;;;2.83;2.53;;;19.00;99.90;;;;;;4996756;28;20219;-70
2023/09/09 05:16:51;;;;;;;2.53;2.33;;;19.00;99.90;;;;;;4977232;28;20209;-67
2023/09/09 05:19:19;;;;;;;2.60;2.40;;;19.00;99.90;;;;;;4995350;28;20208;-67
2023/09/09 05:21:48;;;;;;;3.55;2.50;;;19.10;99.90;;;;;;4989927;28;20197;-67
2023/09/09 05:24:17;;;;;;;2.78;2.38;;;19.00;99.90;;;;;;4995466;28;20205;-67
2023/09/09 05:26:45;;;;;;;2.65;2.30;;;19.10;99.90;;;;;;4992707;28;20628;-69
2023/09/09 05:29:13;;;;;;;3.08;2.78;;;19.10;99.90;;;;;;4995486;28;20653;-68
2023/09/09 05:31:40;;;;;;;;;;;19.10;99.90;;;;;;4989333;28;21276;-69
2023/09/09 05:34:08;;;;;;;2.65;2.45;;;19.10;99.90;;;;;;4999115;28;20083;-66
2023/09/09 05:36:36;;;;;;;;;;;19.10;99.90;;;;;;4994960;28;20361;-68
2023/09/09 05:39:04;;;;;;;;;;;19.10;99.90;;;;;;5000027;28;20029;-69
2023/09/09 05:41:33;;;;;;;;;;;19.20;99.90;;;;;;4998814;28;19933;-68
2023/09/09 05:44:01;;;;;;;;;;;19.20;99.90;;;;;;4997702;28;19940;-69
2023/09/09 05:46:28;;;;;;;;;;;19.20;99.90;;;;;;4995617;28;20691;-66
2023/09/09 05:48:56;;;;;;;;;;;19.30;99.90;;;;;;4999558;28;19934;-66
2023/09/09 05:51:25;;;;;;;;;;;19.20;99.90;;;;;;4995406;28;20321;-67
2023/09/09 05:53:53;;;;;;;;;;;19.20;99.90;;;;;;4992869;28;20007;-67
2023/09/09 05:56:21;;;;;;;;;;;19.40;99.90;;;;;;4992539;28;19930;-69
2023/09/09 05:58:50;;;;;;;;;;;19.40;99.90;;;;;;4994782;28;19925;-68
2023/09/09 06:01:18;;;;;;;;;;;19.50;99.90;;;;;;4998305;28;19926;-68
2023/09/09 06:03:45;;;;;;;;;;;19.50;99.90;;;;;;4999058;28;19930;-67
2023/09/09 06:06:13;;;;;;;;;;;19.50;99.90;;;;;;4997717;28;19933;-68
2023/09/09 06:08:41;;;;;;;;;;;19.60;99.90;;;;;;4996077;28;19933;-67
2023/09/09 06:11:09;;;;;;;;;;;19.70;99.90;;;;;;4997826;28;19933;-67
2023/09/09 06:13:37;;;;;;;;;;;19.80;99.90;;;;;;4999186;28;20483;-69
2023/09/09 06:16:06;;;;;;;;;;;19.80;99.90;;;;;;4997476;28;19941;-67
2023/09/09 06:18:34;;;;;;;;;;;19.80;99.90;;;;;;4991043;28;19955;-68
2023/09/09 06:21:02;;;;;;;;;;;19.90;99.90;;;;;;4995588;28;19941;-68
2023/09/09 06:23:30;;;;;;;;;;;19.90;99.90;;;;;;4994073;28;20016;-67
2023/09/09 06:25:57;;;;;;;;;;;19.90;99.90;;;;;;4989402;28;19934;-67
2023/09/09 06:28:25;;;;;;;;;;;19.90;99.90;;;;;;4995473;28;19933;-68
2023/09/09 06:30:53;;;;;;;;;;;19.90;99.90;;;;;;5000004;28;19934;-68
2023/09/09 06:33:22;;;;;;;;;;;19.80;99.90;;;;;;4992082;28;19979;-69
2023/09/09 06:35:50;;;;;;;;;;;19.90;99.90;;;;;;4997603;28;19934;-67
2023/09/09 06:38:18;;;;;;;;;;;19.90;99.90;;;;;;4995214;28;19969;-69
2023/09/09 06:40:46;;;;;;;;;;;19.90;99.90;;;;;;4992601;28;20028;-67
2023/09/09 06:43:14;;;;;;;;;;;19.90;99.90;;;;;;4994998;28;20027;-69
2023/09/09 06:45:42;;;;;;;;;;;20.00;99.90;;;;;;4995117;28;19934;-67
2023/09/09 06:48:10;;;;;;;;;;;20.00;99.90;;;;;;4990028;28;19929;-69
2023/09/09 06:50:39;;;;;;;;;;;20.00;99.90;;;;;;4998126;28;20698;-68
2023/09/09 06:53:07;;;;;;;;;;;20.00;99.90;;;;;;4992600;28;19929;-68
2023/09/09 06:55:35;;;;;;;;;;;20.10;99.90;;;;;;4993630;28;19939;-68
2023/09/09 06:58:03;;;;;;;;;;;20.20;99.90;;;;;;4991753;28;19940;-67
2023/09/09 07:00:33;;;;;;;;;;;20.20;99.90;;;;;;4996467;28;19934;-67
2023/09/09 07:03:01;;;;;;;;;;;20.20;99.90;;;;;;4998778;28;19930;-68
2023/09/09 07:05:31;;;;;;;;;;;20.30;99.90;;;;;;4993882;28;19995;-67
2023/09/09 07:08:00;;;;;;;;;;;20.30;99.90;;;;;;4993761;28;19969;-69
2023/09/09 07:10:29;;;;;;;;;;;20.30;99.90;;;;;;4994616;28;19968;-66
2023/09/09 07:12:57;;;;;;;;;;;20.40;99.90;;;;;;4991377;28;19933;-67
2023/09/09 07:15:24;;;;;;;;;;;20.50;99.90;;;;;;4994085;28;20068;-68
2023/09/09 07:17:52;;;;;;;;;;;20.60;99.90;;;;;;4992738;28;19991;-67
2023/09/09 07:20:20;;;;;;;;;;;20.70;99.90;;;;;;4993755;28;20056;-68
2023/09/09 07:22:48;;;;;;;;;;;20.80;99.90;;;;;;4993992;28;20435;-67
2023/09/09 07:25:17;;;;;;;;;;;20.90;99.90;;;;;;4995379;28;19930;-69
2023/09/09 07:27:45;;;;;;;;;;;20.90;99.90;;;;;;4989825;28;19933;-67
2023/09/09 07:30:13;;;;;;;;;;;21.00;99.90;;;;;;4994838;28;19980;-69
2023/09/09 07:32:40;;;;;;;;;;;21.20;99.90;;;;;;4992971;28;20060;-68
2023/09/09 07:35:08;;;;;;;;;;;21.30;99.90;;;;;;4990545;28;19934;-67
2023/09/09 07:37:36;;;;;;;;;;;21.30;99.90;;;;;;4996010;28;20583;-68
2023/09/09 07:40:04;;;;;;;;;;;21.30;99.90;;;;;;4995023;28;19934;-68
2023/09/09 07:42:33;;;;;;;;;;;21.50;99.90;;;;;;4996814;28;19975;-68
2023/09/09 07:45:01;;;;;;;;;;;21.60;99.90;;;;;;4998306;28;19933;-68
2023/09/09 07:47:29;;;;;;;;;;;21.80;99.90;;;;;;4995957;28;19932;-67
2023/09/09 07:49:57;;;;;;;;;;;22.00;99.90;;;;;;4999269;28;19977;-66
2023/09/09 07:52:24;;;;;;;;;;;22.10;99.90;;;;;;4997554;28;19937;-67
2023/09/09 07:54:52;;;;;;;;;;;22.30;99.90;;;;;;4995799;28;20400;-67
2023/09/09 07:57:20;;;;;;;;;;;22.40;99.90;;;;;;4990392;28;20257;-67
2023/09/09 07:59:49;;;;;;;;;;;22.60;99.90;;;;;;4994220;28;19921;-69
2023/09/09 08:02:17;;;;;;;;;;;22.70;99.90;;;;;;4993646;28;19925;-68
2023/09/09 08:04:45;;;;;;;;;;;22.90;99.90;;;;;;4991898;28;19933;-69
2023/09/09 08:07:13;;;;;;;;;;;23.10;99.90;;;;;;4987643;28;19929;-67
2023/09/09 08:09:40;;;;;;;;;;;23.20;99.90;;;;;;4993134;28;19925;-68
2023/09/09 08:12:08;;;;;;;;;;;23.30;99.90;;;;;;4995314;28;19933;-69
2023/09/09 08:14:36;;;;;;;;;;;23.50;99.90;;;;;;4998498;28;19934;-68
2023/09/09 08:17:05;;;;;;;;;;;23.60;99.90;;;;;;4995792;28;20047;-66
2023/09/09 08:19:33;;;;;;;;;;;23.70;99.90;;;;;;4997410;28;19933;-68
2023/09/09 08:22:01;;;;;;;;;;;23.80;99.90;;;;;;4994162;28;19941;-69
2023/09/09 08:24:28;;;;;;;;;;;23.90;99.90;;;;;;4987634;28;20714;-66
2023/09/09 08:26:56;;;;;;;;;;;24.10;99.90;;;;;;4988117;28;19926;-67
2023/09/09 08:29:24;;;;;;;;;;;24.10;99.90;;;;;;4991917;28;19937;-72
2023/09/09 08:31:53;;;;;;;;;;;24.30;99.90;;;;;;4997646;28;20020;-69
2023/09/09 08:34:22;;;;;;;;;;;24.40;99.90;;;;;;4996439;28;19925;-66
2023/09/09 08:36:49;;;;;;;;;;;24.40;99.90;;;;;;4985031;28;19926;-72
2023/09/09 08:39:19;;;;;;;;;;;24.50;99.90;;;;;;4993215;28;19984;-69
2023/09/09 08:41:50;;;;;;;;;;;24.50;99.90;;;;;;4996720;28;19922;-71
2023/09/09 08:44:25;;;;;;;;;;;24.60;99.90;;;;;;4996687;28;19922;-67
2023/09/09 08:46:53;;;;;;;;;;;24.80;99.90;;;;;;4993896;28;19933;-69
2023/09/09 08:49:24;;;;;;;;;;;25.10;99.90;;;;;;4993467;28;20576;-69
2023/09/09 08:51:53;;;;;;;;;;;25.20;99.90;;;;;;4996681;28;19979;-68
2023/09/09 08:54:21;;;;;;;;;;;25.30;99.90;;;;;;4994794;28;19945;-69
2023/09/09 08:56:49;;;;;;;;;;;25.40;99.90;;;;;;4995402;28;19926;-69
2023/09/09 08:59:17;;;;;;;;;;;25.70;99.90;;;;;;4995936;28;19926;-67
2023/09/09 09:01:45;;;;;;;;;;;25.80;99.90;;;;;;4996405;28;19934;-69
2023/09/09 09:04:14;;;;;;;;;;;25.90;99.90;;;;;;4992864;28;19936;-67
2023/09/09 09:06:47;;;;;;;;;;;26.10;99.90;;;;;;4994167;28;19937;-68
2023/09/09 09:09:15;;;;;;;;;;;26.30;99.90;;;;;;4992190;28;19935;-69
2023/09/09 09:11:43;;;;;;;;;;;26.50;99.90;;;;;;4990900;28;19936;-69
2023/09/09 09:14:11;;;;;;;;;;;26.70;99.90;;;;;;4991753;28;20007;-64
2023/09/09 09:16:40;;;;;;;;;;;26.80;99.90;;;;;;4992420;28;20442;-66
2023/09/09 09:19:14;;;;;;;;;;;26.90;99.90;;;;;;4982974;28;19948;-66
2023/09/09 09:21:43;;;;;;;;;;;27.10;99.90;;;;;;4999756;28;19929;-66
2023/09/09 09:24:11;;;;;;;;;;;27.30;99.90;;;;;;4994487;28;19926;-66
2023/09/09 09:26:39;;;;;;;;;;;27.40;99.90;;;;;;4992139;28;19926;-66
2023/09/09 09:29:07;;;;;;;;;;;27.70;99.90;;;;;;4992005;28;19930;-66
2023/09/09 09:31:34;;;;;;;;;;;28.00;99.90;;;;;;5010878;28;19948;-66
2023/09/09 09:34:02;;;;;;;;;;;28.20;99.90;;;;;;4996201;28;19933;-66
2023/09/09 09:36:30;;;;;;;;;;;28.40;99.90;;;;;;5016152;23;19981;-67
2023/09/09 09:38:59;;;;;;;;;;;28.50;99.90;;;;;;4992764;28;19930;-67
2023/09/09 09:41:29;;;;;;;;;;;28.70;99.90;;;;;;4991295;28;19925;-67
2023/09/09 09:43:57;;;;;;;;;;;29.10;99.90;;;;;;4991416;28;19988;-66
2023/09/09 09:46:25;;;;;;;;;;;29.50;99.90;;;;;;5000832;28;19933;-67
2023/09/09 09:48:52;;;;;;;;;;;29.60;99.90;;;;;;5011285;28;19929;-67
2023/09/09 09:51:20;;;;;;;;;;;29.80;99.90;;;;;;5010973;28;19933;-67
2023/09/09 09:53:52;;;;;;;;;;;29.90;99.90;;;;;;5010846;28;19929;-67
2023/09/09 09:56:21;;;;;;;;;;;30.00;99.90;;;;;;5001523;28;20402;-67
2023/09/09 09:58:50;;;;;;;;;;;30.10;99.90;;;;;;5005241;28;20029;-67
2023/09/09 10:01:18;;;;;;;;;;;30.20;99.90;;;;;;5007939;28;19925;-68
2023/09/09 10:03:47;;;;;;;;;;;30.00;99.90;;;;;;5011156;28;19926;-66
2023/09/09 10:06:17;;;;;;;;;;;30.10;99.90;;;;;;5011058;28;19983;-67
2023/09/09 10:08:47;;;;;;;;;;;30.30;99.90;;;;;;4996358;28;19925;-67
2023/09/09 10:11:16;;;;;;;;;;;30.50;99.90;;;;;;5006751;28;19925;-67
2023/09/09 10:13:47;;;;;;;;;;;30.60;99.80;;;;;;5002812;28;20352;-67
2023/09/09 10:16:15;;;;;;;;;;;30.70;99.90;;;;;;5011021;28;19926;-68
2023/09/09 10:18:45;;;;;;;;;;;31.10;99.90;;;;;;5003222;28;19934;-67
2023/09/09 10:21:13;;;;;;;;;;;31.30;99.00;;;;;;5014697;28;20399;-67
2023/09/09 10:23:49;;;;;;;;;;;31.30;98.70;;;;;;4999855;28;19976;-67
2023/09/09 10:26:17;;;;;;;;;;;31.40;98.60;;;;;;5009092;28;19926;-67
2023/09/09 10:28:47;;;;;;;;;;;31.60;99.20;;;;;;4990915;28;19932;-67
2023/09/09 10:31:14;;;;;;;;;;;31.90;99.20;;;;;;5014555;28;19939;-68
2023/09/09 10:33:43;;;;;;;;;;;31.90;98.10;;;;;;5014087;28;20431;-67
2023/09/09 10:36:11;;;;;;;;;;;32.00;98.10;;;;;;5005847;28;19926;-68
2023/09/09 10:38:38;;;;;;;;;;;32.10;97.00;;;;;;5014195;28;20347;-68
2023/09/09 10:41:07;;;;;;;;;;;31.90;97.00;;;;;;5014165;28;19932;-67
2023/09/09 10:43:34;;;;;;;;;;;32.00;97.60;;;;;;5012231;28;20347;-68
2023/09/09 10:46:04;;;;;;;;;;;32.10;98.10;;;;;;5009212;28;19929;-68
2023/09/09 10:48:32;;;;;;;;;;;32.30;96.80;;;;;;5014028;28;19929;-68
2023/09/09 10:51:04;;;;;;;;;;;32.50;96.20;;;;;;5014180;28;19983;-68
2023/09/09 10:53:33;;;;;;;;;;;32.60;96.10;;;;;;5013769;28;19936;-68
2023/09/09 10:56:01;;;;;;;;;;;32.90;96.40;;;;;;5013734;28;20396;-68
2023/09/09 10:58:32;;;;;;;;;;;33.00;95.90;;;;;;5011413;28;19932;-68
2023/09/09 11:01:00;;;;;;;;;;;32.80;95.10;;;;;;5013906;28;20319;-67
2023/09/09 11:03:35;;;;;;;;;;;32.70;95.60;;;;;;5013536;28;20288;-67
2023/09/09 11:06:05;;;;;;;;;;;32.90;95.80;;;;;;5013672;28;19926;-68
2023/09/09 11:08:35;;;;;;;;;;;32.80;94.70;;;;;;5013675;28;19929;-68
2023/09/09 11:11:07;;;;;;;;;;;33.10;94.60;;;;;;5011966;28;19931;-68
2023/09/09 11:13:39;;;;;;;;;;;33.30;94.60;;;;;;5011731;28;19925;-68
2023/09/09 11:16:07;;;;;;;;;;;33.40;94.60;;;;;;5008219;28;19926;-68
2023/09/09 11:18:36;;;;;;;;;;;33.70;93.90;;;;;;5013578;28;19932;-68
2023/09/09 11:21:05;;;;;;;;;;;33.60;93.90;;;;;;5000881;28;19934;-68
2023/09/09 11:23:33;;;;;;;;;;;33.60;94.30;;;;;;5011004;28;19936;-68
2023/09/09 11:26:01;;;;;;;;;;;33.60;93.90;;;;;;5013452;28;19925;-68
2023/09/09 11:28:30;;;;;;;;;;;33.40;94.40;;;;;;5013309;28;19983;-68
2023/09/09 11:30:57;;;;;;;;;;;33.30;93.80;;;;;;5012884;28;20016;-68
2023/09/09 11:33:26;;;;;;;;;;;33.40;93.70;;;;;;5012645;28;20351;-67
2023/09/09 11:35:55;;;;;;;;;;;33.60;93.80;;;;;;5011672;28;19945;-68
2023/09/09 11:38:23;;;;;;;;;;;33.80;93.40;;;;;;5005358;28;19929;-67
2023/09/09 11:40:50;;;;;;;;;;;33.90;93.40;;;;;;5013115;28;19976;-68
2023/09/09 11:43:18;;;;;;;;;;;33.90;92.30;;;;;;5013063;28;19926;-67
2023/09/09 11:45:46;;;;;;;;;;;34.20;92.70;;;;;;5007274;28;19988;-67
2023/09/09 11:48:14;;;;;;;;;;;34.60;92.40;;;;;;5013077;28;19925;-68
2023/09/09 11:50:42;;;;;;;;;;;34.70;91.50;;;;;;5012657;28;19929;-68
2023/09/09 11:53:12;;;;;;;;;;;34.80;91.60;;;;;;5001867;28;19941;-67
2023/09/09 11:55:40;;;;;;;;;;;34.90;91.20;;;;;;5011386;28;19940;-68
2023/09/09 11:58:07;;;;;;;;;;;34.90;90.80;;;;;;5012961;28;19976;-67
2023/09/09 12:00:35;;;;;;;;;;;34.70;90.80;;;;;;5012455;28;19926;-68
2023/09/09 12:03:04;;;;;;;;;;;34.40;90.80;;;;;;5012524;28;19930;-68
2023/09/09 12:05:32;;;;;;;;;;;34.30;91.00;;;;;;5009844;28;20443;-67
2023/09/09 12:08:00;;;;;;;;;;;34.20;92.10;;;;;;4992187;28;19930;-67
2023/09/09 12:10:31;;;;;;;;;;;34.40;90.60;;;;;;4990383;28;20007;-68
2023/09/09 12:12:59;;;;;;;;;;;34.50;90.70;;;;;;4992363;28;20309;-68
2023/09/09 12:15:27;;;;;;;;;;;34.80;90.10;;;;;;5004374;28;19925;-68
2023/09/09 12:17:54;;;;;;;;;;;35.00;90.40;;;;;;4988623;28;19933;-68
2023/09/09 12:20:22;;;;;;;;;;;35.40;89.50;;;;;;4977939;28;19930;-68
2023/09/09 12:22:52;;;;;;;;;;;35.50;87.80;;;;;;4979266;28;19926;-68
2023/09/09 12:25:30;;;;;;;;;;;35.50;86.10;;;;;;4979874;28;19930;-68
2023/09/09 12:27:58;;;;;;;;;;;35.40;86.60;;;;;;4981686;28;19929;-68
2023/09/09 12:30:33;;;;;;;;;;;35.30;86.20;;;;;;4984955;28;19926;-68
2023/09/09 12:33:05;;;;;;;;;;;35.50;86.80;;;;;;4978966;28;19929;-68
2023/09/09 12:35:34;;;;;;;;;;;35.80;86.30;;;;;;4985302;28;19981;-68
2023/09/09 12:38:01;;;;;;;;;;;35.80;84.20;;;;;;4981961;28;19929;-68
2023/09/09 12:40:43;;;;;;;;;;;36.20;83.40;;;;;;4983086;28;19929;-68
2023/09/09 12:43:11;;;;;;;;;;;36.30;83.70;;;;;;4977454;28;19972;-68
2023/09/09 12:45:44;;;;;;;;;;;36.50;83.10;;;;;;4983862;28;19926;-69
2023/09/09 12:48:12;;;;;;;;;;;36.50;83.00;;;;;;4981131;28;20300;-68
2023/09/09 12:50:40;;;;;;;;;;;36.70;81.30;;;;;;4984905;28;19989;-68
2023/09/09 12:53:11;;;;;;;;;;;37.00;81.10;;;;;;4984397;28;19926;-68
2023/09/09 12:55:41;;;;;;;;;;;36.80;83.00;;;;;;4978857;28;19972;-68
2023/09/09 12:58:08;;;;;;;;;;;36.90;81.50;;;;;;4977560;28;20559;-68
2023/09/09 13:00:36;;;;;;;;;;;36.80;80.80;;;;;;4972118;28;19973;-68
2023/09/09 13:03:04;;;;;;;;;;;36.50;83.00;;;;;;4975724;28;19936;-68
2023/09/09 13:05:33;;;;;;;;;;;36.60;80.90;;;;;;4981350;28;20304;-68
2023/09/09 13:08:02;;;;;;;;;;;36.90;82.20;;;;;;4975829;28;20056;-68
2023/09/09 13:10:30;;;;;;;;;;;37.30;81.20;;;;;;4976142;28;19980;-68
2023/09/09 13:12:59;;;;;;;;;;;37.50;80.80;;;;;;4976129;28;19936;-70
2023/09/09 13:15:27;;;;;;;;;;;37.60;80.30;;;;;;4986115;28;19985;-68
2023/09/09 13:17:55;;;;;;;;;;;37.80;78.70;;;;;;4992297;28;19933;-67
2023/09/09 13:20:23;;;;;;;;;;;37.90;78.90;;;;;;4992107;28;19934;-69
2023/09/09 13:22:50;;;;;;;;;;;38.10;78.70;;;;;;4988579;28;19929;-68
2023/09/09 13:25:18;;;;;;;;;;;38.30;78.60;;;;;;4986526;28;19976;-68
2023/09/09 13:27:46;;;;;;;;;;;38.50;77.50;;;;;;4993357;28;19941;-67
2023/09/09 13:30:16;;;;;;;;;;;38.20;78.00;;;;;;4989294;28;19933;-68
2023/09/09 13:32:43;;;;;;;;;;;38.20;77.40;;;;;;4985329;28;20063;-68
2023/09/09 13:35:11;;;;;;;;;;;38.10;77.30;;;;;;4990980;28;19937;-67
2023/09/09 13:37:39;;;;;;;;;;;37.90;77.40;;;;;;4990195;28;19932;-67
2023/09/09 13:40:08;;;;;;;;;;;38.10;76.70;;;;;;4991790;28;19926;-68
2023/09/09 13:42:36;;;;;;;;;;;38.40;76.00;;;;;;4986384;28;20404;-67
2023/09/09 13:45:04;;;;;;;;;;;38.40;76.20;;;;;;4987216;28;19940;-67
2023/09/09 13:47:39;;;;;;;;;;;38.00;76.60;;;;;;4990661;28;19934;-68